createdAt,value
2023-01-01T00:00:41.508Z,100.00
2023-01-01T00:01:46.208Z,100.00
2023-01-01T00:02:50.735Z,100.00
2023-01-01T00:03:54.221Z,100.00
2023-01-01T00:04:58.778Z,100.00
2023-01-01T00:06:06.046Z,100.00
2023-01-01T00:07:10.543Z,100.00
2023-01-01T00:08:15.089Z,100.00
2023-01-01T00:09:32.105Z,100.00
2023-01-01T00:10:34.270Z,100.00
2023-01-01T00:11:41.426Z,100.00
2023-01-01T00:12:45.964Z,100.00
2023-01-01T00:13:52.854Z,100.00
2023-01-01T00:14:54.818Z,100.00
2023-01-01T00:15:59.452Z,100.00
2023-01-01T00:17:01.939Z,100.00
2023-01-01T00:18:06.813Z,100.00
2023-01-01T00:19:08.894Z,100.00
2023-01-01T00:20:14.494Z,100.00
2023-01-01T00:21:19.058Z,100.00
2023-01-01T00:22:53.400Z,100.00
2023-01-01T00:23:45.353Z,100.00
2023-01-01T00:24:47.303Z,100.00
2023-01-01T00:25:51.783Z,100.00
2023-01-01T00:26:56.353Z,100.00
2023-01-01T00:28:00.904Z,100.00
2023-01-01T00:29:03.923Z,100.00
2023-01-01T00:30:10.059Z,100.00
2023-01-01T00:31:17.271Z,100.00
2023-01-01T00:32:22.944Z,100.00
2023-01-01T00:33:27.777Z,100.00
2023-01-01T00:34:32.413Z,100.00
2023-01-01T00:35:37.519Z,100.00
2023-01-01T00:36:42.086Z,100.00
2023-01-01T00:37:48.138Z,100.00
2023-01-01T00:38:50.458Z,100.00
2023-01-01T00:39:54.967Z,100.00
2023-01-01T00:40:56.961Z,100.00
2023-01-01T00:42:04.056Z,100.00
2023-01-01T00:43:06.054Z,100.00
2023-01-01T00:44:10.598Z,100.00
2023-01-01T00:45:18.739Z,100.00
2023-01-01T00:46:25.848Z,100.00
2023-01-01T00:47:27.793Z,99.35
2023-01-01T00:48:32.362Z,100.00
2023-01-01T00:49:34.402Z,100.00
2023-01-01T00:50:38.937Z,100.00
2023-01-01T00:51:43.609Z,99.14
2023-01-01T00:52:45.573Z,100.00
2023-01-01T00:53:50.189Z,99.36
2023-01-01T00:54:54.747Z,100.00
2023-01-01T00:55:57.011Z,98.88
2023-01-01T00:57:04.209Z,98.38
2023-01-01T00:58:06.159Z,99.28
2023-01-01T00:59:11.047Z,100.00
2023-01-01T01:00:15.266Z,100.00
2023-01-01T01:01:20.235Z,99.96
2023-01-01T01:02:22.557Z,99.20
2023-01-01T01:03:33.602Z,100.00
2023-01-01T01:04:35.586Z,99.73
2023-01-01T01:05:41.606Z,100.00
2023-01-01T01:06:46.281Z,100.00
2023-01-01T01:07:48.388Z,99.20
2023-01-01T01:08:52.973Z,99.69
2023-01-01T01:09:54.877Z,99.17
2023-01-01T01:11:06.699Z,97.74
2023-01-01T01:12:17.755Z,98.18
2023-01-01T01:13:21.345Z,98.16
2023-01-01T01:14:25.895Z,99.08
2023-01-01T01:15:27.795Z,98.00
2023-01-01T01:16:34.715Z,98.78
2023-01-01T01:17:37.029Z,99.05
2023-01-01T01:18:42.038Z,98.19
2023-01-01T01:19:43.967Z,98.11
2023-01-01T01:20:53.510Z,97.59
2023-01-01T01:21:55.444Z,96.64
2023-01-01T01:22:59.948Z,97.75
2023-01-01T01:24:06.096Z,96.71
2023-01-01T01:25:09.022Z,97.51
2023-01-01T01:26:16.353Z,96.29
2023-01-01T01:27:20.966Z,97.43
2023-01-01T01:28:25.470Z,98.58
2023-01-01T01:29:27.443Z,99.79
2023-01-01T01:30:32.104Z,98.40
2023-01-01T01:31:34.967Z,98.81
2023-01-01T01:32:39.599Z,98.20
2023-01-01T01:33:43.810Z,98.58
2023-01-01T01:34:48.702Z,96.77
2023-01-01T01:35:51.866Z,97.00
2023-01-01T01:36:56.354Z,96.46
2023-01-01T01:37:58.293Z,95.50
2023-01-01T01:39:02.781Z,94.87
2023-01-01T01:40:05.981Z,94.46
2023-01-01T01:41:26.119Z,94.17
2023-01-01T01:42:34.265Z,94.67
2023-01-01T01:43:51.114Z,95.42
2023-01-01T01:45:00.335Z,95.54
2023-01-01T01:46:08.874Z,95.55
2023-01-01T01:47:16.212Z,95.32
2023-01-01T01:48:21.056Z,95.64
2023-01-01T01:49:29.247Z,96.41
2023-01-01T01:50:37.197Z,96.56
2023-01-01T01:51:40.902Z,97.49
2023-01-01T01:52:57.910Z,96.76
2023-01-01T01:54:03.479Z,96.40
2023-01-01T01:55:10.822Z,96.86
2023-01-01T01:56:15.881Z,96.24
2023-01-01T01:57:21.308Z,97.30
2023-01-01T01:58:31.172Z,97.67
2023-01-01T01:59:38.528Z,97.54
2023-01-01T02:00:43.069Z,95.94
2023-01-01T02:01:45.238Z,95.92
2023-01-01T02:02:56.324Z,95.83
2023-01-01T02:03:59.789Z,96.26
2023-01-01T02:05:04.969Z,94.88
2023-01-01T02:06:07.101Z,94.15
2023-01-01T02:07:11.862Z,95.19
2023-01-01T02:08:14.737Z,93.80
2023-01-01T02:09:20.205Z,95.20
2023-01-01T02:10:22.682Z,97.14
2023-01-01T02:11:27.300Z,97.04
2023-01-01T02:12:29.505Z,96.67
2023-01-01T02:13:36.658Z,95.69
2023-01-01T02:14:38.612Z,95.83
2023-01-01T02:15:52.403Z,95.05
2023-01-01T02:16:59.732Z,94.99
2023-01-01T02:18:08.456Z,94.41
2023-01-01T02:19:18.451Z,93.60
2023-01-01T02:20:40.292Z,92.05
2023-01-01T02:21:59.528Z,91.57
2023-01-01T02:23:42.742Z,90.25
2023-01-01T02:24:56.834Z,90.33
2023-01-01T02:26:21.082Z,89.66
2023-01-01T02:27:41.025Z,89.77
2023-01-01T02:28:53.196Z,89.27
2023-01-01T02:30:01.591Z,90.04
2023-01-01T02:31:05.260Z,90.09
2023-01-01T02:32:13.194Z,89.96
2023-01-01T02:33:18.472Z,89.89
2023-01-01T02:34:29.232Z,91.16
2023-01-01T02:35:38.764Z,91.07
2023-01-01T02:36:51.256Z,91.21
2023-01-01T02:37:57.316Z,91.25
2023-01-01T02:39:05.034Z,91.85
2023-01-01T02:40:07.853Z,92.23
2023-01-01T02:41:15.794Z,92.42
2023-01-01T02:42:20.882Z,91.83
2023-01-01T02:43:24.995Z,92.74
2023-01-01T02:44:37.307Z,93.57
2023-01-01T02:45:39.312Z,92.69
2023-01-01T02:46:43.948Z,92.67
2023-01-01T02:47:45.902Z,95.49
2023-01-01T02:48:52.418Z,94.58
2023-01-01T02:49:59.546Z,95.44
2023-01-01T02:51:11.350Z,95.55
2023-01-01T02:52:22.203Z,94.03
2023-01-01T02:53:35.070Z,95.44
2023-01-01T02:54:50.917Z,94.56
2023-01-01T02:56:02.143Z,94.76
2023-01-01T02:57:12.507Z,93.61
2023-01-01T02:58:39.262Z,93.66
2023-01-01T03:00:11.348Z,93.25
2023-01-01T03:01:24.137Z,94.34
2023-01-01T03:02:36.890Z,95.96
2023-01-01T03:03:45.023Z,95.96
2023-01-01T03:05:03.677Z,96.87
2023-01-01T03:06:23.742Z,96.43
2023-01-01T03:07:38.937Z,96.48
2023-01-01T03:08:48.534Z,96.22
2023-01-01T03:10:01.895Z,96.63
2023-01-01T03:11:08.294Z,97.93
2023-01-01T03:12:21.390Z,98.12
2023-01-01T03:13:33.184Z,97.59
2023-01-01T03:14:50.495Z,97.96
2023-01-01T03:16:00.016Z,97.99
2023-01-01T03:17:09.535Z,97.74
2023-01-01T03:18:18.883Z,93.39
2023-01-01T03:19:26.561Z,92.75
2023-01-01T03:20:32.711Z,92.45
2023-01-01T03:21:37.441Z,92.68
2023-01-01T03:23:49.957Z,92.08
2023-01-01T03:24:58.475Z,90.51
2023-01-01T03:26:06.716Z,91.21
2023-01-01T03:27:17.478Z,91.25
2023-01-01T03:28:24.203Z,91.62
2023-01-01T03:29:32.552Z,92.11
2023-01-01T03:30:40.269Z,90.21
2023-01-01T03:31:47.781Z,87.55
2023-01-01T03:33:00.695Z,88.99
2023-01-01T03:34:09.276Z,89.18
2023-01-01T03:35:13.891Z,88.25
2023-01-01T03:36:22.761Z,88.18
2023-01-01T03:37:29.153Z,88.63
2023-01-01T03:38:38.677Z,87.68
2023-01-01T03:39:45.237Z,89.52
2023-01-01T03:40:52.853Z,90.53
2023-01-01T03:42:06.774Z,90.41
2023-01-01T03:43:17.165Z,90.34
2023-01-01T03:44:27.231Z,91.45
2023-01-01T03:45:36.219Z,92.15
2023-01-01T03:46:41.657Z,92.76
2023-01-01T03:47:46.514Z,92.22
2023-01-01T03:49:03.275Z,92.62
2023-01-01T03:50:09.899Z,92.24
2023-01-01T03:51:19.268Z,92.72
2023-01-01T03:52:34.005Z,93.21
2023-01-01T03:53:40.904Z,94.01
2023-01-01T03:54:56.718Z,93.17
2023-01-01T03:56:06.770Z,94.11
2023-01-01T03:57:17.230Z,94.27
2023-01-01T03:58:25.145Z,94.98
2023-01-01T03:59:37.585Z,94.83
2023-01-01T04:00:50.243Z,94.15
2023-01-01T04:02:01.226Z,93.44
2023-01-01T04:03:08.832Z,92.44
2023-01-01T04:04:15.147Z,91.19
2023-01-01T04:05:18.994Z,89.09
2023-01-01T04:06:24.122Z,88.80
2023-01-01T04:07:26.459Z,88.41
2023-01-01T04:08:31.078Z,88.57
2023-01-01T04:09:36.422Z,88.66
2023-01-01T04:10:45.758Z,87.99
2023-01-01T04:12:04.543Z,86.58
2023-01-01T04:13:09.756Z,87.93
2023-01-01T04:14:11.721Z,86.43
2023-01-01T04:15:16.619Z,86.62
2023-01-01T04:16:18.758Z,86.05
2023-01-01T04:17:25.914Z,85.11
2023-01-01T04:18:27.849Z,85.44
2023-01-01T04:19:32.377Z,85.42
2023-01-01T04:20:34.349Z,83.02
2023-01-01T04:21:38.837Z,82.81
2023-01-01T04:22:40.932Z,83.88
2023-01-01T04:23:45.444Z,83.74
2023-01-01T04:24:47.451Z,84.67
2023-01-01T04:25:51.956Z,84.56
2023-01-01T04:26:55.556Z,84.49
2023-01-01T04:28:03.440Z,85.28
2023-01-01T04:29:05.581Z,85.57
2023-01-01T04:30:13.037Z,84.80
2023-01-01T04:31:15.000Z,84.71
2023-01-01T04:32:19.664Z,84.45
2023-01-01T04:33:24.170Z,84.53
2023-01-01T04:34:28.717Z,83.17
2023-01-01T04:35:31.012Z,84.37
2023-01-01T04:36:36.341Z,84.56
2023-01-01T04:37:41.285Z,84.92
2023-01-01T04:38:43.227Z,84.32
2023-01-01T04:39:47.819Z,84.01
2023-01-01T04:40:58.036Z,85.63
2023-01-01T04:42:02.585Z,85.86
2023-01-01T04:43:04.540Z,84.84
2023-01-01T04:44:09.079Z,85.45
2023-01-01T04:45:15.230Z,85.86
2023-01-01T04:46:21.367Z,87.28
2023-01-01T04:47:23.338Z,85.92
2023-01-01T04:48:31.252Z,86.95
2023-01-01T04:49:35.765Z,87.98
2023-01-01T04:50:37.686Z,87.92
2023-01-01T04:51:42.224Z,87.38
2023-01-01T04:52:44.122Z,86.82
2023-01-01T04:53:49.034Z,87.20
2023-01-01T04:54:53.566Z,88.38
2023-01-01T04:55:55.435Z,88.34
2023-01-01T04:56:59.938Z,88.12
2023-01-01T04:58:01.844Z,87.06
2023-01-01T04:59:06.385Z,87.84
2023-01-01T05:00:09.779Z,88.16
2023-01-01T05:01:19.394Z,87.58
2023-01-01T05:02:21.480Z,86.52
2023-01-01T05:03:26.102Z,86.24
2023-01-01T05:04:33.187Z,86.47
2023-01-01T05:05:35.112Z,86.88
2023-01-01T05:06:40.568Z,85.58
2023-01-01T05:07:42.461Z,85.64
2023-01-01T05:08:50.022Z,87.34
2023-01-01T05:09:51.984Z,87.15
2023-01-01T05:11:01.873Z,87.85
2023-01-01T05:12:04.108Z,88.05
2023-01-01T05:13:11.824Z,89.72
2023-01-01T05:14:13.776Z,89.30
2023-01-01T05:15:18.336Z,90.86
2023-01-01T05:16:22.696Z,91.58
2023-01-01T05:17:27.277Z,93.15
2023-01-01T05:18:29.196Z,92.45
2023-01-01T05:19:36.295Z,91.35
2023-01-01T05:20:38.215Z,92.15
2023-01-01T05:21:45.190Z,92.64
2023-01-01T05:22:47.435Z,92.55
2023-01-01T05:23:52.445Z,92.80
2023-01-01T05:24:54.747Z,93.67
2023-01-01T05:25:59.426Z,93.91
2023-01-01T05:27:03.924Z,96.27
2023-01-01T05:28:05.865Z,95.95
2023-01-01T05:29:16.031Z,96.93
2023-01-01T05:30:18.983Z,96.91
2023-01-01T05:31:24.939Z,98.21
2023-01-01T05:32:26.853Z,97.29
2023-01-01T05:33:31.338Z,97.99
2023-01-01T05:35:39.109Z,100.00
2023-01-01T05:36:41.097Z,100.00
2023-01-01T05:37:45.559Z,100.00
2023-01-01T05:38:47.991Z,100.00
2023-01-01T05:39:52.475Z,100.00
2023-01-01T05:40:54.451Z,100.00
2023-01-01T05:42:00.111Z,100.00
2023-01-01T05:43:02.008Z,100.00
2023-01-01T05:44:09.170Z,100.00
2023-01-01T05:45:12.321Z,100.00
2023-01-01T05:46:19.789Z,100.00
2023-01-01T05:47:22.482Z,100.00
2023-01-01T05:48:26.987Z,100.00
2023-01-01T05:49:28.950Z,100.00
2023-01-01T05:50:35.988Z,100.00
2023-01-01T05:52:41.587Z,100.00
2023-01-01T05:53:44.676Z,100.00
2023-01-01T05:54:49.225Z,100.00
2023-01-01T05:55:54.315Z,100.00
2023-01-01T05:56:58.836Z,100.00
2023-01-01T05:58:00.756Z,100.00
2023-01-01T05:59:05.350Z,100.00
2023-01-01T06:00:08.739Z,100.00
2023-01-01T06:01:15.919Z,100.00
2023-01-01T06:02:21.066Z,100.00
2023-01-01T06:03:25.874Z,100.00
2023-01-01T06:04:27.865Z,100.00
2023-01-01T06:05:32.421Z,100.00
2023-01-01T06:06:36.955Z,100.00
2023-01-01T06:07:47.993Z,100.00
2023-01-01T06:08:50.981Z,100.00
2023-01-01T06:09:55.492Z,100.00
2023-01-01T06:10:59.317Z,100.00
2023-01-01T06:12:03.858Z,100.00
2023-01-01T06:13:12.830Z,100.00
2023-01-01T06:14:17.861Z,100.00
2023-01-01T06:15:19.760Z,100.00
2023-01-01T06:16:24.919Z,100.00
2023-01-01T06:17:26.899Z,100.00
2023-01-01T06:18:33.175Z,100.00
2023-01-01T06:19:35.112Z,100.00
2023-01-01T06:20:39.588Z,100.00
2023-01-01T06:21:46.696Z,100.00
2023-01-01T06:22:48.662Z,100.00
2023-01-01T06:23:53.717Z,100.00
2023-01-01T06:24:55.618Z,100.00
2023-01-01T06:26:02.007Z,100.00
2023-01-01T06:27:07.128Z,100.00
2023-01-01T06:28:09.235Z,100.00
2023-01-01T06:29:13.737Z,100.00
2023-01-01T06:30:15.777Z,100.00
2023-01-01T06:31:21.991Z,100.00
2023-01-01T06:32:26.592Z,100.00
2023-01-01T06:33:29.515Z,100.00
2023-01-01T06:34:34.076Z,100.00
2023-01-01T06:35:36.477Z,100.00
2023-01-01T06:36:41.280Z,100.00
2023-01-01T06:37:45.775Z,100.00
2023-01-01T06:38:51.896Z,100.00
2023-01-01T06:39:53.807Z,100.00
2023-01-01T06:40:59.587Z,100.00
2023-01-01T06:42:01.473Z,100.00
2023-01-01T06:43:05.960Z,100.00
2023-01-01T06:44:07.868Z,100.00
2023-01-01T06:45:13.430Z,100.00
2023-01-01T06:46:19.539Z,100.00
2023-01-01T06:47:24.097Z,100.00
2023-01-01T06:48:26.046Z,100.00
2023-01-01T06:49:30.535Z,100.00
2023-01-01T06:50:32.443Z,100.00
2023-01-01T06:51:40.572Z,100.00
2023-01-01T06:52:42.531Z,100.00
2023-01-01T06:53:50.408Z,100.00
2023-01-01T06:54:52.405Z,100.00
2023-01-01T06:55:57.570Z,100.00
2023-01-01T06:56:59.602Z,100.00
2023-01-01T06:58:09.271Z,100.00
2023-01-01T06:59:13.802Z,100.00
2023-01-01T07:00:16.485Z,100.00
2023-01-01T07:01:23.472Z,100.00
2023-01-01T07:02:25.594Z,100.00
2023-01-01T07:03:30.295Z,100.00
2023-01-01T07:04:34.821Z,100.00
2023-01-01T07:05:36.802Z,100.00
2023-01-01T07:06:41.919Z,100.00
2023-01-01T07:07:43.848Z,100.00
2023-01-01T07:08:51.261Z,100.00
2023-01-01T07:09:55.756Z,100.00
2023-01-01T07:10:58.058Z,100.00
2023-01-01T07:12:02.698Z,100.00
2023-01-01T07:13:04.769Z,100.00
2023-01-01T07:14:09.257Z,100.00
2023-01-01T07:15:12.150Z,100.00
2023-01-01T07:16:17.609Z,100.00
2023-01-01T07:17:19.615Z,100.00
2023-01-01T07:18:26.061Z,100.00
2023-01-01T07:19:30.620Z,100.00
2023-01-01T07:20:32.556Z,100.00
2023-01-01T07:21:43.667Z,100.00
2023-01-01T07:22:45.601Z,100.00
2023-01-01T07:23:52.694Z,100.00
2023-01-01T07:24:57.309Z,100.00
2023-01-01T07:25:59.351Z,100.00
2023-01-01T07:27:03.829Z,100.00
2023-01-01T07:28:05.731Z,100.00
2023-01-01T07:29:11.277Z,100.00
2023-01-01T07:30:16.049Z,100.00
2023-01-01T07:31:18.012Z,100.00
2023-01-01T07:32:22.550Z,100.00
2023-01-01T07:33:24.585Z,100.00
2023-01-01T07:34:29.113Z,100.00
2023-01-01T07:35:31.024Z,100.00
2023-01-01T07:36:35.639Z,100.00
2023-01-01T07:37:37.988Z,100.00
2023-01-01T07:38:42.684Z,100.00
2023-01-01T07:39:50.003Z,100.00
2023-01-01T07:40:51.909Z,100.00
2023-01-01T07:41:56.405Z,100.00
2023-01-01T07:42:58.802Z,100.00
2023-01-01T07:44:03.515Z,100.00
2023-01-01T07:45:06.637Z,100.00
2023-01-01T07:46:13.648Z,100.00
2023-01-01T07:47:21.330Z,100.00
2023-01-01T07:48:25.824Z,100.00
2023-01-01T07:49:27.722Z,100.00
2023-01-01T07:50:34.368Z,100.00
2023-01-01T07:51:39.150Z,100.00
2023-01-01T07:52:41.039Z,100.00
2023-01-01T07:53:45.544Z,100.00
2023-01-01T07:54:52.712Z,100.00
2023-01-01T07:55:54.769Z,100.00
2023-01-01T07:56:59.336Z,100.00
2023-01-01T07:58:02.107Z,100.00
2023-01-01T07:59:06.951Z,100.00
2023-01-01T08:00:10.647Z,100.00
2023-01-01T08:01:16.443Z,100.00
2023-01-01T08:02:18.480Z,100.00
2023-01-01T08:03:23.185Z,100.00
2023-01-01T08:04:28.051Z,100.00
2023-01-01T08:05:30.117Z,100.00
2023-01-01T08:06:34.643Z,100.00
2023-01-01T08:07:36.664Z,100.00
2023-01-01T08:08:41.351Z,100.00
2023-01-01T08:09:45.865Z,100.00
2023-01-01T08:10:50.342Z,100.00
2023-01-01T08:11:54.844Z,100.00
2023-01-01T08:13:00.487Z,100.00
2023-01-01T08:14:05.229Z,100.00
2023-01-01T08:15:08.867Z,100.00
2023-01-01T08:16:13.421Z,100.00
2023-01-01T08:17:15.431Z,100.00
2023-01-01T08:18:19.982Z,100.00
2023-01-01T08:19:24.492Z,100.00
2023-01-01T08:20:26.873Z,100.00
2023-01-01T08:21:31.480Z,100.00
2023-01-01T08:22:33.838Z,100.00
2023-01-01T08:23:38.447Z,100.00
2023-01-01T08:24:40.383Z,100.00
2023-01-01T08:26:05.197Z,100.00
2023-01-01T08:27:08.440Z,100.00
2023-01-01T08:28:28.859Z,100.00
2023-01-01T08:29:33.382Z,100.00
2023-01-01T08:30:37.892Z,100.00
2023-01-01T08:31:39.891Z,100.00
2023-01-01T08:32:44.776Z,100.00
2023-01-01T08:33:49.294Z,100.00
2023-01-01T08:34:51.165Z,100.00
2023-01-01T08:35:55.823Z,100.00
2023-01-01T08:37:00.344Z,100.00
2023-01-01T08:38:02.275Z,100.00
2023-01-01T08:39:06.841Z,100.00
2023-01-01T08:40:11.947Z,100.00
2023-01-01T08:41:19.134Z,100.00
2023-01-01T08:42:21.051Z,100.00
2023-01-01T08:43:25.562Z,100.00
2023-01-01T08:44:27.475Z,100.00
2023-01-01T08:45:32.033Z,100.00
2023-01-01T08:46:33.980Z,100.00
2023-01-01T08:47:38.492Z,100.00
2023-01-01T08:48:42.959Z,100.00
2023-01-01T08:49:47.617Z,100.00
2023-01-01T08:50:55.951Z,100.00
2023-01-01T08:51:57.838Z,100.00
2023-01-01T08:53:02.561Z,100.00
2023-01-01T08:54:07.673Z,100.00
2023-01-01T08:55:10.466Z,100.00
2023-01-01T08:56:16.027Z,100.00
2023-01-01T08:57:20.639Z,100.00
2023-01-01T08:58:25.164Z,97.74
2023-01-01T08:59:29.685Z,98.57
2023-01-01T09:00:31.613Z,97.71
2023-01-01T09:01:36.239Z,95.35
2023-01-01T09:02:38.407Z,93.43
2023-01-01T09:03:43.032Z,93.14
2023-01-01T09:04:44.936Z,92.46
2023-01-01T09:05:49.549Z,91.31
2023-01-01T09:06:54.194Z,89.20
2023-01-01T09:07:58.705Z,87.73
2023-01-01T09:09:00.615Z,87.19
2023-01-01T09:10:05.182Z,88.51
2023-01-01T09:11:07.135Z,86.07
2023-01-01T09:12:17.670Z,84.15
2023-01-01T09:13:24.968Z,84.70
2023-01-01T09:14:29.451Z,84.07
2023-01-01T09:15:31.703Z,84.20
2023-01-01T09:16:41.916Z,82.31
2023-01-01T09:17:48.664Z,80.75
2023-01-01T09:18:53.580Z,81.01
2023-01-01T09:19:58.045Z,80.21
2023-01-01T09:21:02.566Z,79.18
2023-01-01T09:22:07.084Z,76.49
2023-01-01T09:23:10.553Z,75.52
2023-01-01T09:24:15.039Z,71.80
2023-01-01T09:25:19.640Z,70.37
2023-01-01T09:26:21.531Z,67.37
2023-01-01T09:27:26.168Z,65.60
2023-01-01T09:28:33.564Z,65.37
2023-01-01T09:29:38.044Z,64.70
2023-01-01T09:30:40.045Z,66.26
2023-01-01T09:31:44.549Z,67.77
2023-01-01T09:32:49.434Z,68.56
2023-01-01T09:33:54.201Z,70.21
2023-01-01T09:35:00.841Z,70.79
2023-01-01T09:36:16.469Z,72.15
2023-01-01T09:37:20.938Z,74.11
2023-01-01T09:38:25.424Z,74.26
2023-01-01T09:39:30.375Z,75.86
2023-01-01T09:40:51.366Z,77.30
2023-01-01T09:42:10.422Z,78.95
2023-01-01T09:43:27.860Z,79.17
2023-01-01T09:44:55.710Z,81.69
2023-01-01T09:46:03.087Z,81.44
2023-01-01T09:47:16.517Z,78.85
2023-01-01T09:48:21.333Z,79.19
2023-01-01T09:49:34.531Z,79.39
2023-01-01T09:50:43.648Z,80.68
2023-01-01T09:51:58.174Z,78.67
2023-01-01T09:55:00.168Z,82.08
2023-01-01T09:56:03.599Z,82.50
2023-01-01T09:57:16.310Z,82.78
2023-01-01T09:58:26.726Z,82.04
2023-01-01T09:59:32.157Z,81.36
2023-01-01T10:00:42.683Z,83.92
2023-01-01T10:01:52.000Z,83.14
2023-01-01T10:03:15.942Z,82.78
2023-01-01T10:04:29.234Z,84.13
2023-01-01T10:05:40.685Z,83.43
2023-01-01T10:06:49.403Z,83.47
2023-01-01T10:08:00.645Z,83.19
2023-01-01T10:09:16.736Z,83.42
2023-01-01T10:10:33.672Z,83.10
2023-01-01T10:11:49.100Z,82.51
2023-01-01T10:13:03.254Z,80.52
2023-01-01T10:14:18.988Z,81.85
2023-01-01T10:15:28.831Z,82.33
2023-01-01T10:16:40.083Z,82.79
2023-01-01T10:17:48.127Z,82.93
2023-01-01T10:18:57.654Z,82.04
2023-01-01T10:20:08.437Z,80.32
2023-01-01T10:21:17.991Z,80.86
2023-01-01T10:22:25.937Z,81.80
2023-01-01T10:23:36.619Z,79.39
2023-01-01T10:24:48.458Z,77.28
2023-01-01T10:25:50.448Z,76.75
2023-01-01T10:26:57.569Z,75.99
2023-01-01T10:28:04.763Z,77.18
2023-01-01T10:29:17.741Z,77.14
2023-01-01T10:30:24.481Z,77.80
2023-01-01T10:31:31.929Z,76.88
2023-01-01T10:32:41.049Z,75.64
2023-01-01T10:33:45.999Z,75.22
2023-01-01T10:34:51.939Z,75.88
2023-01-01T10:35:58.800Z,75.05
2023-01-01T10:37:02.814Z,74.63
2023-01-01T10:38:08.252Z,76.14
2023-01-01T10:39:18.641Z,76.11
2023-01-01T10:40:22.915Z,76.17
2023-01-01T10:41:27.527Z,75.99
2023-01-01T10:42:29.419Z,75.79
2023-01-01T10:43:33.932Z,76.03
2023-01-01T10:44:38.929Z,75.87
2023-01-01T10:45:45.218Z,76.74
2023-01-01T10:46:55.054Z,74.75
2023-01-01T10:48:33.252Z,74.65
2023-01-01T10:49:35.154Z,75.37
2023-01-01T10:50:46.037Z,74.87
2023-01-01T10:51:52.509Z,73.34
2023-01-01T10:52:56.749Z,70.61
2023-01-01T10:54:01.726Z,69.66
2023-01-01T10:55:04.178Z,71.94
2023-01-01T10:56:12.771Z,69.20
2023-01-01T10:57:21.084Z,68.88
2023-01-01T10:58:29.939Z,67.99
2023-01-01T10:59:40.063Z,66.84
2023-01-01T11:00:44.558Z,66.74
2023-01-01T11:01:49.344Z,66.31
2023-01-01T11:03:16.845Z,65.40
2023-01-01T11:04:24.805Z,64.77
2023-01-01T11:05:26.768Z,64.79
2023-01-01T11:06:35.553Z,64.61
2023-01-01T11:07:37.949Z,65.27
2023-01-01T11:08:49.610Z,65.08
2023-01-01T11:10:03.196Z,64.34
2023-01-01T11:11:08.933Z,65.22
2023-01-01T11:12:54.627Z,65.86
2023-01-01T11:13:46.480Z,65.54
2023-01-01T11:14:56.149Z,64.07
2023-01-01T11:16:01.601Z,64.22
2023-01-01T11:17:04.403Z,64.34
2023-01-01T11:18:10.826Z,64.76
2023-01-01T11:19:23.689Z,65.63
2023-01-01T11:20:30.999Z,61.49
2023-01-01T11:21:37.290Z,60.81
2023-01-01T11:22:42.261Z,60.67
2023-01-01T11:23:46.822Z,58.82
2023-01-01T11:25:03.304Z,57.08
2023-01-01T11:26:10.048Z,57.01
2023-01-01T11:27:18.329Z,57.98
2023-01-01T11:28:23.967Z,57.22
2023-01-01T11:29:30.593Z,57.95
2023-01-01T11:30:35.150Z,57.46
2023-01-01T11:31:42.606Z,55.73
2023-01-01T11:32:45.180Z,55.02
2023-01-01T11:33:55.579Z,55.58
2023-01-01T11:35:03.029Z,55.92
2023-01-01T11:36:11.282Z,57.74
2023-01-01T11:37:24.953Z,56.14
2023-01-01T11:38:30.575Z,54.76
2023-01-01T11:39:37.508Z,55.66
2023-01-01T11:40:46.509Z,54.57
2023-01-01T11:41:52.936Z,56.23
2023-01-01T11:43:01.134Z,54.31
2023-01-01T11:44:03.066Z,55.25
2023-01-01T11:45:22.680Z,54.48
2023-01-01T11:46:27.832Z,54.61
2023-01-01T11:47:35.987Z,56.50
2023-01-01T11:48:45.094Z,55.90
2023-01-01T11:49:56.424Z,55.44
2023-01-01T11:51:03.978Z,55.33
2023-01-01T11:52:31.590Z,53.50
2023-01-01T11:53:37.977Z,53.20
2023-01-01T11:54:44.524Z,53.47
2023-01-01T11:55:52.888Z,53.46
2023-01-01T11:57:02.197Z,53.75
2023-01-01T11:58:19.845Z,55.60
2023-01-01T11:59:30.613Z,54.62
2023-01-01T12:00:39.344Z,51.85
2023-01-01T12:01:45.161Z,52.85
2023-01-01T12:02:55.589Z,54.22
2023-01-01T12:04:05.715Z,53.00
2023-01-01T12:05:17.114Z,51.93
2023-01-01T12:06:27.853Z,52.78
2023-01-01T12:07:39.056Z,54.21
2023-01-01T12:08:49.897Z,52.72
2023-01-01T12:09:58.143Z,53.43
2023-01-01T12:11:11.873Z,54.72
2023-01-01T12:12:24.678Z,54.35
2023-01-01T12:13:33.112Z,52.46
2023-01-01T12:14:43.197Z,52.46
2023-01-01T12:15:56.555Z,55.21
2023-01-01T12:17:01.923Z,53.73
2023-01-01T12:18:16.057Z,53.96
2023-01-01T12:19:24.999Z,53.10
2023-01-01T12:20:32.806Z,54.63
2023-01-01T12:21:39.174Z,53.23
2023-01-01T12:22:46.300Z,52.55
2023-01-01T12:23:50.845Z,53.43
2023-01-01T12:24:56.487Z,54.24
2023-01-01T12:26:06.189Z,54.31
2023-01-01T12:27:20.930Z,54.21
2023-01-01T12:28:36.343Z,53.96
2023-01-01T12:29:51.225Z,54.26
2023-01-01T12:31:06.165Z,53.18
2023-01-01T12:32:15.505Z,54.05
2023-01-01T12:33:34.394Z,53.90
2023-01-01T12:34:44.743Z,52.87
2023-01-01T12:35:57.968Z,51.17
2023-01-01T12:37:13.512Z,51.87
2023-01-01T12:38:36.339Z,52.03
2023-01-01T12:40:17.049Z,53.20
2023-01-01T12:41:33.467Z,52.80
2023-01-01T12:42:52.525Z,51.82
2023-01-01T12:44:05.914Z,51.52
2023-01-01T12:45:32.686Z,52.60
2023-01-01T12:46:50.932Z,50.18
2023-01-01T12:48:01.269Z,51.85
2023-01-01T12:49:29.802Z,51.96
2023-01-01T12:50:47.895Z,53.13
2023-01-01T12:52:09.028Z,53.19
2023-01-01T12:53:28.429Z,53.57
2023-01-01T12:54:57.678Z,53.40
2023-01-01T12:56:15.089Z,53.15
2023-01-01T12:57:32.207Z,52.94
2023-01-01T12:58:38.794Z,53.38
2023-01-01T12:59:48.537Z,52.58
2023-01-01T13:00:56.310Z,54.55
2023-01-01T13:02:04.770Z,52.96
2023-01-01T13:03:12.054Z,53.73
2023-01-01T13:04:22.011Z,53.67
2023-01-01T13:05:36.901Z,51.08
2023-01-01T13:06:45.617Z,52.51
2023-01-01T13:07:51.394Z,50.90
2023-01-01T13:09:05.243Z,51.24
2023-01-01T13:10:22.292Z,50.82
2023-01-01T13:11:29.609Z,51.50
2023-01-01T13:12:34.635Z,51.03
2023-01-01T13:13:39.343Z,50.90
2023-01-01T13:14:45.988Z,49.94
2023-01-01T13:15:51.671Z,50.65
2023-01-01T13:16:57.945Z,51.56
2023-01-01T13:18:00.638Z,51.95
2023-01-01T13:19:05.487Z,52.07
2023-01-01T13:20:20.773Z,51.50
2023-01-01T13:21:25.873Z,50.70
2023-01-01T13:22:44.399Z,50.99
2023-01-01T13:23:48.715Z,51.22
2023-01-01T13:25:09.220Z,51.22
2023-01-01T13:26:39.664Z,51.79
2023-01-01T13:28:06.389Z,53.22
2023-01-01T13:29:25.850Z,53.01
2023-01-01T13:30:48.677Z,51.16
2023-01-01T13:32:10.742Z,53.74
2023-01-01T13:33:26.044Z,52.95
2023-01-01T13:34:46.308Z,52.03
2023-01-01T13:35:48.322Z,51.26
2023-01-01T13:36:52.860Z,51.92
2023-01-01T13:37:57.525Z,53.09
2023-01-01T13:39:00.094Z,51.88
2023-01-01T13:40:06.805Z,52.13
2023-01-01T13:41:32.354Z,52.20
2023-01-01T13:42:52.425Z,51.86
2023-01-01T13:44:21.250Z,50.59
2023-01-01T13:47:12.051Z,51.20
2023-01-01T13:48:45.073Z,51.34
2023-01-01T13:50:07.252Z,51.00
2023-01-01T13:52:04.332Z,51.48
2023-01-01T13:53:13.034Z,52.50
2023-01-01T13:54:41.736Z,51.40
2023-01-01T13:56:03.467Z,49.58
2023-01-01T13:57:30.268Z,50.75
2023-01-01T13:59:18.805Z,49.84
2023-01-01T14:00:25.799Z,50.02
2023-01-01T14:02:12.386Z,50.29
2023-01-01T14:03:19.790Z,49.47
2023-01-01T14:04:35.582Z,48.30
2023-01-01T14:05:44.232Z,48.15
2023-01-01T14:06:50.523Z,47.69
2023-01-01T14:07:57.446Z,46.24
2023-01-01T14:09:08.989Z,46.85
2023-01-01T14:10:23.233Z,46.54
2023-01-01T14:11:29.342Z,46.45
2023-01-01T14:12:41.353Z,45.21
2023-01-01T14:13:45.899Z,44.40
2023-01-01T14:14:50.935Z,43.87
2023-01-01T14:15:55.472Z,44.68
2023-01-01T14:17:02.144Z,44.13
2023-01-01T14:18:13.840Z,43.72
2023-01-01T14:19:18.442Z,45.43
2023-01-01T14:20:24.331Z,44.93
2023-01-01T14:21:33.029Z,44.97
2023-01-01T14:22:37.568Z,44.09
2023-01-01T14:23:44.849Z,43.76
2023-01-01T14:24:48.331Z,43.31
2023-01-01T14:25:53.447Z,43.05
2023-01-01T14:26:59.363Z,43.28
2023-01-01T14:28:08.003Z,43.11